Time;durP1;ratioP1;P1;durP2;ratioP2;P2;SDS_P1;SDS_P2;PMS_P1;PMS_P2;Temp;Humidity;BMP_temperature;BMP_pressure;BME280_temperature;BME280_humidity;BME280_pressure;Samples;Min_cycle;Max_cycle;Signal;HPM_P1;HPM_P2
2023/09/08 00:01:24;;;;;;;607.20;586.22;;;;;;;;;;5017552;28;20198;-90
2023/09/08 00:03:50;;;;;;;612.85;591.38;;;;;;;;;;5017826;28;20677;-88
2023/09/08 00:06:16;;;;;;;602.80;582.15;;;;;;;;;;5017999;28;20283;-91
2023/09/08 00:08:43;;;;;;;604.85;583.78;;;;;;;;;;5017485;28;20186;-90
2023/09/08 00:11:09;;;;;;;594.50;573.83;;;;;;;;;;5037580;28;20698;-90
2023/09/08 00:13:35;;;;;;;596.22;575.47;;;;;;;;;;5036752;28;20560;-91
2023/09/08 00:16:01;;;;;;;596.17;575.60;;;;;;;;;;5018974;28;20189;-91
2023/09/08 00:18:27;;;;;;;583.85;563.97;;;;;;;;;;5018727;28;20219;-92
2023/09/08 00:20:53;;;;;;;552.40;534.05;;;;;;;;;;5017463;28;20237;-90
2023/09/08 00:23:19;;;;;;;550.10;532.03;;;;;;;;;;5019725;28;20193;-92
2023/09/08 00:25:45;;;;;;;560.40;541.88;;;;;;;;;;5021503;28;20204;-90
2023/09/08 00:28:11;;;;;;;545.80;527.70;;;;;;;;;;5024179;28;20450;-94
2023/09/08 00:30:37;;;;;;;567.35;548.50;;;;;;;;;;5023891;28;20204;-90
2023/09/08 00:33:03;;;;;;;543.28;525.28;;;;;;;;;;5023266;28;20224;-90
2023/09/08 00:35:29;;;;;;;544.22;526.42;;;;;;;;;;5020987;28;20690;-91
2023/09/08 00:37:55;;;;;;;555.08;536.63;;;;;;;;;;5020192;28;20215;-90
2023/09/08 00:40:21;;;;;;;546.38;528.50;;;;;;;;;;5019640;28;20199;-90
2023/09/08 00:42:47;;;;;;;559.65;540.58;;;;;;;;;;5019677;28;20176;-90
2023/09/08 00:45:13;;;;;;;540.35;522.42;;;;;;;;;;5017578;28;20637;-94
2023/09/08 00:47:39;;;;;;;548.92;530.58;;;;;;;;;;5007648;28;20209;-90
2023/09/08 00:50:06;;;;;;;568.83;549.33;;;;;;;;;;5018369;28;20174;-88
2023/09/08 00:52:33;;;;;;;551.20;533.05;;;;;;;;;;5008517;28;20229;-91
2023/09/08 00:55:00;;;;;;;555.13;536.92;;;;;;;;;;4999038;28;20253;-89
2023/09/08 00:57:26;;;;;;;526.20;509.02;;;;;;;;;;4998777;28;20172;-91
2023/09/08 00:59:52;;;;;;;522.60;505.70;;;;;;;;;;4999705;28;20553;-92
2023/09/08 01:02:18;;;;;;;519.15;501.95;;;;;;;;;;4998404;28;20198;-90
2023/09/08 01:04:45;;;;;;;508.45;492.13;;;;;;;;;;5008907;28;20186;-92
2023/09/08 01:07:11;;;;;;;520.58;503.95;;;;;;;;;;5018478;28;20567;-92
2023/09/08 01:09:37;;;;;;;514.28;498.00;;;;;;;;;;5028004;28;20191;-90
2023/09/08 01:12:05;;;;;;;511.98;495.60;;;;;;;;;;5040179;28;20218;-90
2023/09/08 01:14:31;;;;;;;497.77;481.98;;;;;;;;;;5041012;28;20192;-90
2023/09/08 01:16:57;;;;;;;506.13;489.80;;;;;;;;;;5039775;28;20181;-90
2023/09/08 01:19:23;;;;;;;494.30;478.75;;;;;;;;;;5039276;28;20690;-89
2023/09/08 01:21:49;;;;;;;499.67;484.08;;;;;;;;;;5039254;28;20768;-91
2023/09/08 01:24:34;;;;;;;516.50;499.55;;;;;;;;;;5038360;28;20188;-92
2023/09/08 01:27:00;;;;;;;461.73;447.52;;;;;;;;;;5038891;28;20190;-92
2023/09/08 01:29:27;;;;;;;473.55;458.70;;;;;;;;;;5038571;28;20242;-91
2023/09/08 01:31:53;;;;;;;481.00;466.00;;;;;;;;;;5038915;28;20302;-88
2023/09/08 01:34:19;;;;;;;479.55;464.38;;;;;;;;;;5039692;28;20195;-88
2023/09/08 01:36:46;;;;;;;475.98;461.00;;;;;;;;;;5039635;28;20181;-90
2023/09/08 01:39:12;;;;;;;495.90;479.67;;;;;;;;;;5040015;28;20239;-90
2023/09/08 01:41:38;;;;;;;515.65;498.92;;;;;;;;;;5039689;28;20202;-92
2023/09/08 01:44:07;;;;;;;482.63;467.08;;;;;;;;;;5033377;28;20193;-91
2023/09/08 01:46:34;;;;;;;496.80;480.90;;;;;;;;;;5019975;28;20212;-90
2023/09/08 01:49:00;;;;;;;490.27;474.42;;;;;;;;;;5002248;28;20596;-92
2023/09/08 01:51:26;;;;;;;473.05;458.05;;;;;;;;;;5019989;28;20201;-91
2023/09/08 01:53:52;;;;;;;469.55;454.75;;;;;;;;;;5020221;28;20180;-90
2023/09/08 01:56:18;;;;;;;483.88;468.50;;;;;;;;;;5022077;28;20280;-91
2023/09/08 01:58:44;;;;;;;485.90;470.60;;;;;;;;;;5020788;28;20206;-89
2023/09/08 02:01:10;;;;;;;491.33;475.52;;;;;;;;;;5020917;28;20213;-90
2023/09/08 02:03:36;;;;;;;485.23;469.90;;;;;;;;;;5022345;28;20217;-90
2023/09/08 02:06:02;;;;;;;493.17;477.48;;;;;;;;;;5020862;28;20182;-90
2023/09/08 02:08:27;;;;;;;472.70;457.83;;;;;;;;;;5018954;28;20189;-90
2023/09/08 02:10:54;;;;;;;467.80;452.60;;;;;;;;;;5037655;28;20212;-90
2023/09/08 02:13:20;;;;;;;465.42;450.52;;;;;;;;;;5039803;28;20566;-90
2023/09/08 02:15:46;;;;;;;463.70;449.25;;;;;;;;;;5039978;28;20200;-90
2023/09/08 02:18:13;;;;;;;468.80;453.90;;;;;;;;;;5042586;28;20246;-91
2023/09/08 02:20:39;;;;;;;483.88;468.48;;;;;;;;;;5041237;28;20198;-90
2023/09/08 02:23:05;;;;;;;497.40;481.55;;;;;;;;;;5040534;28;20189;-90
2023/09/08 02:25:31;;;;;;;479.83;464.38;;;;;;;;;;5040193;28;20181;-90
2023/09/08 02:27:57;;;;;;;471.52;456.75;;;;;;;;;;5039005;28;20191;-93
2023/09/08 02:30:23;;;;;;;465.42;450.83;;;;;;;;;;5039796;28;20212;-90
2023/09/08 02:32:49;;;;;;;464.40;449.95;;;;;;;;;;5039957;28;20219;-90
2023/09/08 02:35:15;;;;;;;474.42;459.58;;;;;;;;;;5038548;28;20188;-91
2023/09/08 02:37:41;;;;;;;448.05;434.10;;;;;;;;;;5038942;28;20308;-89
2023/09/08 02:40:08;;;;;;;465.13;450.52;;;;;;;;;;5037483;28;20188;-89
2023/09/08 02:42:34;;;;;;;456.73;442.63;;;;;;;;;;5019022;28;20276;-89
2023/09/08 02:45:00;;;;;;;448.17;434.38;;;;;;;;;;5003918;28;20452;-90
2023/09/08 02:47:26;;;;;;;460.83;446.48;;;;;;;;;;4999333;28;20552;-90
2023/09/08 02:49:52;;;;;;;452.00;438.02;;;;;;;;;;4999591;28;20186;-91
2023/09/08 02:52:19;;;;;;;448.00;434.08;;;;;;;;;;5000180;28;20201;-92
2023/09/08 02:54:45;;;;;;;460.90;446.77;;;;;;;;;;5014241;28;20675;-91
2023/09/08 02:57:11;;;;;;;460.08;445.60;;;;;;;;;;5007566;28;20209;-90
2023/09/08 02:59:37;;;;;;;464.90;450.17;;;;;;;;;;5014498;28;20620;-89
2023/09/08 03:02:03;;;;;;;443.67;429.90;;;;;;;;;;5018130;28;20219;-90
2023/09/08 03:04:30;;;;;;;442.63;428.98;;;;;;;;;;5018667;28;20189;-90
2023/09/08 03:06:56;;;;;;;458.92;444.55;;;;;;;;;;5014818;28;20651;-90
2023/09/08 03:09:22;;;;;;;454.17;440.10;;;;;;;;;;5006650;28;20183;-88
2023/09/08 03:11:48;;;;;;;456.00;441.77;;;;;;;;;;5000309;28;20214;-89
2023/09/08 03:14:14;;;;;;;433.25;419.60;;;;;;;;;;4999963;28;20182;-90
2023/09/08 03:16:40;;;;;;;453.60;439.55;;;;;;;;;;5000106;28;20182;-91
2023/09/08 03:19:06;;;;;;;402.77;390.52;;;;;;;;;;4999762;28;20229;-90
2023/09/08 03:21:33;;;;;;;419.15;406.45;;;;;;;;;;5001305;28;20213;-90
2023/09/08 03:23:59;;;;;;;407.70;395.27;;;;;;;;;;5001962;28;20248;-89
2023/09/08 03:26:25;;;;;;;426.05;412.73;;;;;;;;;;5000018;28;20177;-90
2023/09/08 03:28:51;;;;;;;427.50;414.20;;;;;;;;;;4999792;28;20182;-92
2023/09/08 03:31:18;;;;;;;415.95;403.35;;;;;;;;;;4999762;28;20676;-90
2023/09/08 03:33:44;;;;;;;408.00;395.55;;;;;;;;;;4999215;28;20201;-90
2023/09/08 03:36:10;;;;;;;424.80;411.80;;;;;;;;;;5002079;28;20219;-90
2023/09/08 03:38:37;;;;;;;410.77;398.23;;;;;;;;;;5019320;28;20213;-89
2023/09/08 03:41:03;;;;;;;411.55;398.85;;;;;;;;;;5020563;28;20208;-90
2023/09/08 03:43:29;;;;;;;409.83;397.30;;;;;;;;;;5020736;28;20267;-92
2023/09/08 03:45:55;;;;;;;401.17;389.05;;;;;;;;;;5020880;28;20180;-90
2023/09/08 03:48:21;;;;;;;399.02;387.02;;;;;;;;;;5019537;28;20195;-90
2023/09/08 03:50:47;;;;;;;397.98;385.92;;;;;;;;;;5018893;28;20212;-90
2023/09/08 03:53:13;;;;;;;412.75;400.20;;;;;;;;;;5005915;28;20182;-89
2023/09/08 03:55:39;;;;;;;402.55;390.23;;;;;;;;;;5001337;28;20211;-89
2023/09/08 03:58:06;;;;;;;397.38;385.30;;;;;;;;;;5009062;28;20204;-90
2023/09/08 04:00:32;;;;;;;390.33;378.55;;;;;;;;;;5021075;28;20200;-89
2023/09/08 04:02:58;;;;;;;396.20;384.25;;;;;;;;;;5021503;28;20264;-90
2023/09/08 04:05:24;;;;;;;402.08;389.63;;;;;;;;;;5017673;28;20232;-90
2023/09/08 04:07:50;;;;;;;391.10;379.25;;;;;;;;;;5015508;28;20307;-89
2023/09/08 04:10:16;;;;;;;386.65;374.98;;;;;;;;;;5032375;28;20210;-90
2023/09/08 04:12:42;;;;;;;399.92;387.30;;;;;;;;;;5037770;28;20183;-90
2023/09/08 04:15:09;;;;;;;392.83;380.90;;;;;;;;;;5030945;28;20239;-89
2023/09/08 04:17:36;;;;;;;389.58;377.65;;;;;;;;;;4999010;28;20211;-89
2023/09/08 04:20:04;;;;;;;390.77;378.88;;;;;;;;;;5001712;28;20262;-90
2023/09/08 04:22:30;;;;;;;374.95;363.55;;;;;;;;;;5007997;28;20201;-90
2023/09/08 04:24:57;;;;;;;388.65;376.95;;;;;;;;;;5020769;28;20272;-89
2023/09/08 04:27:23;;;;;;;383.48;371.55;;;;;;;;;;5009868;28;20185;-90
2023/09/08 04:29:49;;;;;;;382.95;369.95;;;;;;;;;;5001206;28;20201;-90
2023/09/08 04:32:15;;;;;;;402.60;390.23;;;;;;;;;;5002952;28;20217;-88
2023/09/08 04:34:41;;;;;;;384.00;372.38;;;;;;;;;;5018892;28;20372;-90
2023/09/08 04:37:08;;;;;;;371.02;359.73;;;;;;;;;;5019237;28;20228;-90
2023/09/08 04:39:34;;;;;;;378.75;367.40;;;;;;;;;;5007938;28;20268;-88
2023/09/08 04:42:00;;;;;;;377.83;366.08;;;;;;;;;;5001799;28;20202;-89
2023/09/08 04:44:27;;;;;;;363.90;352.95;;;;;;;;;;5019257;28;20252;-88
2023/09/08 04:46:53;;;;;;;371.73;360.42;;;;;;;;;;5023387;28;20497;-90
2023/09/08 04:49:19;;;;;;;423.23;386.30;;;;;;;;;;5022743;28;20187;-88
2023/09/08 04:51:45;;;;;;;442.33;396.02;;;;;;;;;;5023682;28;20204;-87
2023/09/08 04:54:11;;;;;;;432.73;389.88;;;;;;;;;;5024788;28;20180;-89
2023/09/08 04:56:39;;;;;;;361.48;342.42;;;;;;;;;;5023155;28;20191;-90
2023/09/08 04:59:05;;;;;;;377.50;355.90;;;;;;;;;;5019515;28;20334;-88
2023/09/08 05:01:32;;;;;;;370.75;354.20;;;;;;;;;;5018937;28;20302;-88
2023/09/08 05:03:59;;;;;;;356.65;342.15;;;;;;;;;;5000337;28;20188;-88
2023/09/08 05:06:25;;;;;;;351.08;338.15;;;;;;;;;;5018237;28;20190;-87
2023/09/08 05:08:52;;;;;;;361.73;347.77;;;;;;;;;;5020001;28;20204;-90
2023/09/08 05:11:19;;;;;;;364.17;347.05;;;;;;;;;;5008548;28;20228;-90
2023/09/08 05:13:46;;;;;;;354.48;335.95;;;;;;;;;;5000150;28;20188;-88
2023/09/08 05:16:12;;;;;;;354.75;338.73;;;;;;;;;;5000570;28;20718;-90
2023/09/08 05:18:39;;;;;;;333.75;322.30;;;;;;;;;;5002270;28;20214;-93
2023/09/08 05:21:05;;;;;;;333.23;321.27;;;;;;;;;;5000137;28;20246;-89
2023/09/08 05:23:31;;;;;;;336.45;326.05;;;;;;;;;;5006049;28;20214;-89
2023/09/08 05:25:57;;;;;;;339.50;329.15;;;;;;;;;;5011310;28;20226;-89
2023/09/08 05:28:23;;;;;;;334.67;323.88;;;;;;;;;;5009330;28;20187;-91
2023/09/08 05:30:52;;;;;;;340.58;329.48;;;;;;;;;;5009707;28;20218;-89
2023/09/08 05:33:18;;;;;;;342.85;332.30;;;;;;;;;;5009586;28;20236;-90
2023/09/08 05:35:45;;;;;;;337.40;327.17;;;;;;;;;;5009668;28;20223;-93
2023/09/08 05:38:11;;;;;;;341.60;331.27;;;;;;;;;;5011563;28;20211;-88
2023/09/08 05:40:37;;;;;;;344.85;334.20;;;;;;;;;;5011347;28;20243;-92
2023/09/08 05:43:04;;;;;;;346.20;335.30;;;;;;;;;;5011816;28;20189;-90
2023/09/08 05:45:31;;;;;;;358.10;346.30;;;;;;;;;;5010061;28;20219;-91
2023/09/08 05:47:57;;;;;;;353.30;342.20;;;;;;;;;;5009872;28;20764;-90
2023/09/08 05:50:23;;;;;;;350.02;338.90;;;;;;;;;;5014549;28;20226;-92
2023/09/08 05:52:49;;;;;;;353.95;342.58;;;;;;;;;;5019075;28;20698;-89
2023/09/08 05:55:15;;;;;;;352.58;341.58;;;;;;;;;;5009727;28;20212;-90
2023/09/08 05:57:41;;;;;;;388.75;357.65;;;;;;;;;;5018240;28;20195;-90
2023/09/08 06:00:07;;;;;;;407.10;370.00;;;;;;;;;;5011638;28;20187;-88
2023/09/08 06:02:33;;;;;;;365.90;345.92;;;;;;;;;;5016210;28;20179;-88
2023/09/08 06:04:59;;;;;;;367.08;349.77;;;;;;;;;;5018636;28;20180;-88
2023/09/08 06:07:25;;;;;;;371.95;349.92;;;;;;;;;;5019046;28;20207;-91
2023/09/08 06:09:51;;;;;;;350.88;333.27;;;;;;;;;;5013801;28;20218;-89
2023/09/08 06:12:17;;;;;;;328.10;313.45;;;;;;;;;;4999102;28;20267;-88
2023/09/08 06:14:44;;;;;;;328.95;317.70;;;;;;;;;;4999777;28;20200;-90
2023/09/08 06:17:10;;;;;;;323.80;313.10;;;;;;;;;;4998144;28;20189;-88
2023/09/08 06:19:36;;;;;;;336.58;325.23;;;;;;;;;;4999913;28;20214;-89
2023/09/08 06:22:02;;;;;;;311.48;301.98;;;;;;;;;;4998958;28;20268;-89
2023/09/08 06:24:28;;;;;;;325.77;315.95;;;;;;;;;;4998767;28;20273;-89
2023/09/08 06:26:54;;;;;;;314.38;304.83;;;;;;;;;;5018237;28;20287;-88
2023/09/08 06:29:20;;;;;;;330.30;320.15;;;;;;;;;;5017556;28;20189;-88
2023/09/08 06:31:46;;;;;;;330.05;318.42;;;;;;;;;;4998765;28;20216;-90
2023/09/08 06:34:12;;;;;;;332.27;322.00;;;;;;;;;;4998590;28;20174;-88
2023/09/08 06:36:38;;;;;;;341.63;330.25;;;;;;;;;;4998619;28;20183;-90
2023/09/08 06:39:04;;;;;;;340.48;329.35;;;;;;;;;;4997704;28;20234;-89
2023/09/08 06:41:30;;;;;;;344.60;334.05;;;;;;;;;;5009152;28;20216;-89
2023/09/08 06:43:56;;;;;;;347.88;337.23;;;;;;;;;;4998306;28;20232;-90
2023/09/08 06:46:22;;;;;;;369.85;358.00;;;;;;;;;;4998033;28;20549;-92
2023/09/08 06:48:48;;;;;;;349.60;339.02;;;;;;;;;;4997769;28;20178;-88
2023/09/08 06:51:14;;;;;;;341.95;331.17;;;;;;;;;;4998307;28;20636;-90
2023/09/08 06:53:43;;;;;;;317.02;307.15;;;;;;;;;;5014932;28;20180;-89
2023/09/08 06:56:09;;;;;;;330.75;320.55;;;;;;;;;;5018833;28;20185;-89
2023/09/08 06:58:35;;;;;;;331.00;320.98;;;;;;;;;;5017996;28;20277;-88
2023/09/08 07:01:01;;;;;;;337.05;326.50;;;;;;;;;;5016402;28;20200;-88
2023/09/08 07:03:27;;;;;;;347.75;336.80;;;;;;;;;;5017203;28;20264;-89
2023/09/08 07:05:53;;;;;;;358.45;347.58;;;;;;;;;;5016846;28;20191;-89
2023/09/08 07:08:19;;;;;;;372.02;360.58;;;;;;;;;;5017847;28;20267;-88
2023/09/08 07:10:46;;;;;;;391.25;379.42;;;;;;;;;;5034882;28;20205;-89
2023/09/08 07:13:12;;;;;;;410.38;397.83;;;;;;;;;;5035624;28;20247;-90
2023/09/08 07:15:38;;;;;;;404.35;391.48;;;;;;;;;;5036741;28;20605;-88
2023/09/08 07:18:04;;;;;;;410.48;397.88;;;;;;;;;;5037377;28;20606;-88
2023/09/08 07:20:30;;;;;;;438.00;424.45;;;;;;;;;;5025612;28;20297;-88
2023/09/08 07:22:56;;;;;;;432.08;418.65;;;;;;;;;;5015526;28;20210;-89
2023/09/08 07:25:22;;;;;;;469.45;453.30;;;;;;;;;;5017982;28;20197;-89
2023/09/08 07:27:48;;;;;;;464.40;449.92;;;;;;;;;;5017294;28;20185;-89
2023/09/08 07:30:14;;;;;;;484.10;467.92;;;;;;;;;;5015920;28;20186;-88
2023/09/08 07:32:40;;;;;;;456.60;442.13;;;;;;;;;;5013233;28;20285;-88
2023/09/08 07:35:13;;;;;;;477.00;461.92;;;;;;;;;;5016264;28;20672;-89
2023/09/08 07:37:40;;;;;;;489.55;473.50;;;;;;;;;;5017258;28;20225;-90
2023/09/08 07:40:06;;;;;;;504.52;488.08;;;;;;;;;;5016228;28;20185;-88
2023/09/08 07:42:32;;;;;;;518.47;501.33;;;;;;;;;;5018099;28;20195;-88
2023/09/08 07:44:58;;;;;;;498.02;481.85;;;;;;;;;;5018608;28;20528;-89
2023/09/08 07:47:24;;;;;;;505.25;488.95;;;;;;;;;;5016987;28;20189;-88
2023/09/08 07:49:50;;;;;;;509.60;492.80;;;;;;;;;;5016746;28;20193;-89
2023/09/08 07:52:16;;;;;;;526.22;508.70;;;;;;;;;;5018613;28;20201;-89
2023/09/08 07:54:42;;;;;;;531.28;513.65;;;;;;;;;;5020856;28;20181;-90
2023/09/08 07:57:08;;;;;;;545.63;527.65;;;;;;;;;;5019694;28;20242;-91
2023/09/08 07:59:34;;;;;;;551.90;532.88;;;;;;;;;;5021340;28;20209;-89
2023/09/08 08:02:01;;;;;;;556.67;535.75;;;;;;;;;;5008884;28;20201;-89
2023/09/08 08:04:27;;;;;;;568.63;548.67;;;;;;;;;;5020528;28;20269;-89
2023/09/08 08:06:53;;;;;;;570.53;550.97;;;;;;;;;;5020981;28;20189;-87
2023/09/08 08:09:19;;;;;;;567.72;548.00;;;;;;;;;;5019960;28;20671;-89
2023/09/08 08:11:45;;;;;;;578.75;558.85;;;;;;;;;;5019601;28;20262;-89
2023/09/08 08:14:11;;;;;;;602.30;581.22;;;;;;;;;;5018514;28;20182;-89
2023/09/08 08:16:37;;;;;;;615.28;593.40;;;;;;;;;;5017082;28;20220;-88
2023/09/08 08:19:03;;;;;;;623.08;600.90;;;;;;;;;;5018841;28;20201;-90
2023/09/08 08:21:29;;;;;;;632.72;609.63;;;;;;;;;;5020150;28;20278;-88
2023/09/08 08:23:55;;;;;;;652.05;627.08;;;;;;;;;;5018671;28;20213;-90
2023/09/08 08:26:22;;;;;;;678.20;652.67;;;;;;;;;;5019196;28;20667;-89
2023/09/08 08:28:48;;;;;;;692.15;665.30;;;;;;;;;;5019245;28;20299;-91
2023/09/08 08:31:14;;;;;;;699.55;672.38;;;;;;;;;;5019629;28;20257;-90
2023/09/08 08:33:40;;;;;;;705.20;677.67;;;;;;;;;;5019682;28;20213;-89
2023/09/08 08:36:07;;;;;;;685.53;658.95;;;;;;;;;;5019244;28;20205;-89
2023/09/08 08:38:33;;;;;;;654.30;630.30;;;;;;;;;;5019597;28;20571;-89
2023/09/08 08:41:03;;;;;;;567.90;548.88;;;;;;;;;;5019803;28;20267;-89
2023/09/08 08:43:29;;;;;;;555.35;536.70;;;;;;;;;;5005412;28;20170;-89
2023/09/08 08:45:56;;;;;;;570.58;551.60;;;;;;;;;;5000161;28;20217;-89
2023/09/08 08:48:24;;;;;;;606.75;585.72;;;;;;;;;;4999856;28;20197;-89
2023/09/08 08:50:51;;;;;;;653.72;629.75;;;;;;;;;;5002107;28;20194;-90
2023/09/08 08:53:18;;;;;;;609.55;588.08;;;;;;;;;;5011932;28;20189;-93
2023/09/08 08:55:45;;;;;;;637.88;615.03;;;;;;;;;;5004177;28;20190;-88
2023/09/08 08:58:14;;;;;;;630.65;608.33;;;;;;;;;;5005493;28;20217;-89
2023/09/08 09:00:40;;;;;;;617.45;595.90;;;;;;;;;;5019265;28;20196;-88
2023/09/08 09:03:06;;;;;;;604.90;583.75;;;;;;;;;;5012879;28;20670;-88
2023/09/08 09:05:33;;;;;;;608.15;587.08;;;;;;;;;;5010311;28;20181;-89
2023/09/08 09:08:03;;;;;;;641.60;618.17;;;;;;;;;;5019938;28;20177;-89
2023/09/08 09:10:29;;;;;;;685.65;660.28;;;;;;;;;;5036307;28;20246;-89
2023/09/08 09:12:55;;;;;;;656.45;632.38;;;;;;;;;;5041254;28;20184;-89
2023/09/08 09:15:28;;;;;;;684.88;658.92;;;;;;;;;;5023212;28;20178;-89
2023/09/08 09:18:05;;;;;;;1999.90;999.90;;;;;;;;;;5012297;28;20195;-89
2023/09/08 09:20:31;;;;;;;1999.90;999.90;;;;;;;;;;5000701;28;20560;-90
2023/09/08 09:22:57;;;;;;;1999.90;999.90;;;;;;;;;;5000137;28;20198;-87
2023/09/08 09:25:24;;;;;;;1999.90;999.90;;;;;;;;;;4999641;28;20205;-89
2023/09/08 09:27:54;;;;;;;1999.90;999.90;;;;;;;;;;5001109;28;20666;-91
2023/09/08 09:30:21;;;;;;;1999.90;999.90;;;;;;;;;;4998124;28;20194;-88
2023/09/08 09:32:49;;;;;;;1999.90;999.90;;;;;;;;;;5011381;28;20178;-87
2023/09/08 09:35:16;;;;;;;1999.90;999.90;;;;;;;;;;5020167;28;20244;-88
2023/09/08 09:37:42;;;;;;;1999.90;999.90;;;;;;;;;;5020513;28;20185;-89
2023/09/08 09:40:10;;;;;;;1999.90;999.90;;;;;;;;;;5020579;28;20195;-89
2023/09/08 09:42:39;;;;;;;1999.90;999.90;;;;;;;;;;5020493;28;20301;-89
2023/09/08 09:45:05;;;;;;;1999.90;999.90;;;;;;;;;;5018360;28;20182;-89
2023/09/08 09:47:31;;;;;;;1999.90;999.90;;;;;;;;;;5019830;28;20188;-88
2023/09/08 09:49:58;;;;;;;1999.90;999.90;;;;;;;;;;5018706;28;20575;-88
2023/09/08 09:52:26;;;;;;;1999.90;999.90;;;;;;;;;;5016743;28;20210;-88
2023/09/08 09:54:56;;;;;;;1999.90;999.90;;;;;;;;;;5020400;28;20252;-88
2023/09/08 09:57:23;;;;;;;1999.90;999.90;;;;;;;;;;5019976;28;20636;-89
2023/09/08 09:59:50;;;;;;;1999.90;999.90;;;;;;;;;;5018823;28;20210;-89
2023/09/08 10:02:20;;;;;;;1999.90;999.90;;;;;;;;;;5013961;28;20194;-87
2023/09/08 10:04:47;;;;;;;1999.90;999.90;;;;;;;;;;5004481;28;20197;-89
2023/09/08 10:07:15;;;;;;;1999.90;999.90;;;;;;;;;;5018679;28;20182;-88
2023/09/08 10:09:41;;;;;;;1999.90;999.90;;;;;;;;;;5021178;28;20224;-88
2023/09/08 10:12:08;;;;;;;1999.90;999.90;;;;;;;;;;5021589;28;20679;-91
2023/09/08 10:14:40;;;;;;;1999.90;999.90;;;;;;;;;;5022634;28;20185;-87
2023/09/08 10:17:07;;;;;;;1999.90;999.90;;;;;;;;;;5002731;28;20201;-89
2023/09/08 10:19:41;;;;;;;1999.90;999.90;;;;;;;;;;5019422;28;20259;-87
2023/09/08 10:22:07;;;;;;;1999.90;999.90;;;;;;;;;;5019112;28;20220;-90
2023/09/08 10:24:34;;;;;;;1999.90;999.90;;;;;;;;;;5020278;28;20174;-90
2023/09/08 10:27:05;;;;;;;1999.90;999.90;;;;;;;;;;5019846;28;20247;-91
2023/09/08 10:29:31;;;;;;;1999.90;999.90;;;;;;;;;;5018085;28;20189;-88
2023/09/08 10:31:58;;;;;;;1999.90;999.90;;;;;;;;;;5019588;28;20280;-91
2023/09/08 10:34:25;;;;;;;1999.90;999.90;;;;;;;;;;5020675;28;20205;-88
2023/09/08 10:36:51;;;;;;;1999.90;999.90;;;;;;;;;;5019857;28;20186;-88
2023/09/08 10:39:29;;;;;;;1999.90;999.90;;;;;;;;;;5019718;28;20209;-90
2023/09/08 10:42:13;;;;;;;1999.90;999.90;;;;;;;;;;5020827;28;20564;-89
2023/09/08 10:44:39;;;;;;;1999.90;999.90;;;;;;;;;;5019791;28;20170;-90
2023/09/08 10:47:05;;;;;;;1999.90;999.90;;;;;;;;;;5014178;28;20237;-90
2023/09/08 10:49:35;;;;;;;1999.90;999.90;;;;;;;;;;5001022;28;20194;-91
2023/09/08 10:52:11;;;;;;;1999.90;999.90;;;;;;;;;;4999057;28;20304;-89
2023/09/08 10:54:50;;;;;;;1999.90;999.90;;;;;;;;;;4998973;28;20214;-89
2023/09/08 10:57:22;;;;;;;1999.90;999.90;;;;;;;;;;5005271;28;20206;-88
2023/09/08 10:59:55;;;;;;;1999.90;999.90;;;;;;;;;;5004703;28;20210;-89
2023/09/08 11:02:41;;;;;;;1999.90;999.90;;;;;;;;;;5005623;28;20228;-90
2023/09/08 11:05:08;;;;;;;1999.90;999.90;;;;;;;;;;5018567;28;20173;-88
2023/09/08 11:07:36;;;;;;;1999.90;999.90;;;;;;;;;;5018348;28;20181;-90
2023/09/08 11:10:02;;;;;;;1999.90;999.90;;;;;;;;;;5025467;28;20212;-90
2023/09/08 11:12:28;;;;;;;1999.90;999.90;;;;;;;;;;5028761;28;20206;-90
2023/09/08 11:14:55;;;;;;;1999.90;999.90;;;;;;;;;;5018146;28;20684;-92
2023/09/08 11:17:21;;;;;;;1999.90;999.90;;;;;;;;;;5016979;28;20251;-89
2023/09/08 11:19:48;;;;;;;1999.90;999.90;;;;;;;;;;5017035;28;20219;-89
2023/09/08 11:22:15;;;;;;;1999.90;999.90;;;;;;;;;;5011660;28;20216;-93
2023/09/08 11:24:45;;;;;;;1999.90;999.90;;;;;;;;;;5019115;28;20212;-90
2023/09/08 11:27:14;;;;;;;1999.90;999.90;;;;;;;;;;5021149;28;20212;-89
2023/09/08 11:29:40;;;;;;;1999.90;999.90;;;;;;;;;;5023479;28;20178;-88
2023/09/08 11:32:09;;;;;;;1999.90;999.90;;;;;;;;;;5023236;28;20201;-92
2023/09/08 11:34:36;;;;;;;1999.90;999.90;;;;;;;;;;5015702;28;20254;-89
2023/09/08 11:37:13;;;;;;;1999.90;999.90;;;;;;;;;;5020801;28;20212;-88
2023/09/08 11:39:48;;;;;;;1999.90;999.90;;;;;;;;;;5021808;28;20347;-89
2023/09/08 11:42:15;;;;;;;1999.90;999.90;;;;;;;;;;5019992;28;20229;-88
2023/09/08 11:44:41;;;;;;;1999.90;999.90;;;;;;;;;;5002573;28;20648;-89
2023/09/08 11:47:09;;;;;;;1999.90;999.90;;;;;;;;;;5001158;28;20229;-89
2023/09/08 11:49:39;;;;;;;1999.90;999.90;;;;;;;;;;5002335;28;20190;-89
2023/09/08 11:52:07;;;;;;;1999.90;999.90;;;;;;;;;;5001829;28;20233;-89
2023/09/08 11:54:34;;;;;;;1999.90;999.90;;;;;;;;;;5002025;28;20186;-89
2023/09/08 11:57:00;;;;;;;1999.90;999.90;;;;;;;;;;5002038;28;20178;-89
2023/09/08 11:59:27;;;;;;;1999.90;999.90;;;;;;;;;;5004031;28;20294;-88
2023/09/08 12:01:54;;;;;;;1999.90;999.90;;;;;;;;;;5002061;28;20225;-89
2023/09/08 12:04:21;;;;;;;1999.90;999.90;;;;;;;;;;5003123;28;20182;-90
2023/09/08 12:06:48;;;;;;;1999.90;999.90;;;;;;;;;;5012148;28;20263;-90
2023/09/08 12:09:14;;;;;;;1999.90;999.90;;;;;;;;;;5025111;28;20192;-90
2023/09/08 12:11:42;;;;;;;1999.90;999.90;;;;;;;;;;5040547;28;20205;-90
2023/09/08 12:14:09;;;;;;;1999.90;999.90;;;;;;;;;;5040638;28;20181;-90
2023/09/08 12:16:35;;;;;;;1999.90;999.90;;;;;;;;;;5022383;28;20270;-90
2023/09/08 12:19:01;;;;;;;1999.90;999.90;;;;;;;;;;5000709;28;20285;-89
2023/09/08 12:21:27;;;;;;;1999.90;999.90;;;;;;;;;;5001384;28;20221;-90
2023/09/08 12:23:54;;;;;;;1999.90;999.90;;;;;;;;;;4999823;28;20695;-90
2023/09/08 12:26:20;;;;;;;1999.90;999.90;;;;;;;;;;5008827;28;20189;-91
2023/09/08 12:28:47;;;;;;;1999.90;999.90;;;;;;;;;;5019928;28;20197;-90
2023/09/08 12:31:14;;;;;;;1999.90;999.90;;;;;;;;;;5021410;28;20197;-89
2023/09/08 12:33:40;;;;;;;1999.90;999.90;;;;;;;;;;5021631;28;20178;-90
2023/09/08 12:36:17;;;;;;;1999.90;999.90;;;;;;;;;;4998881;28;20190;-91
2023/09/08 12:38:52;;;;;;;1999.90;999.90;;;;;;;;;;5000165;28;20205;-91
2023/09/08 12:41:18;;;;;;;1999.90;999.90;;;;;;;;;;5001829;28;20719;-90
2023/09/08 12:43:45;;;;;;;1999.90;999.90;;;;;;;;;;5001641;28;20706;-89
2023/09/08 12:46:11;;;;;;;1999.90;999.90;;;;;;;;;;5000482;28;20269;-90
2023/09/08 12:48:37;;;;;;;1999.90;999.90;;;;;;;;;;5011054;28;20507;-90
2023/09/08 12:51:03;;;;;;;1999.90;999.90;;;;;;;;;;5021000;28;20197;-91
2023/09/08 12:53:35;;;;;;;1999.90;999.90;;;;;;;;;;5020979;28;20212;-90
2023/09/08 12:56:01;;;;;;;1999.90;999.90;;;;;;;;;;5022558;28;20181;-89
2023/09/08 12:58:30;;;;;;;1999.90;999.90;;;;;;;;;;5021855;28;20217;-91
2023/09/08 13:00:56;;;;;;;1999.90;999.90;;;;;;;;;;5024335;28;20714;-89
2023/09/08 13:03:22;;;;;;;1999.90;999.90;;;;;;;;;;5021848;28;20725;-89
2023/09/08 13:05:48;;;;;;;1999.90;999.90;;;;;;;;;;5022753;28;20211;-88
2023/09/08 13:08:15;;;;;;;1999.90;999.90;;;;;;;;;;5020677;28;20192;-91
2023/09/08 13:10:44;;;;;;;1999.90;999.90;;;;;;;;;;5038006;28;20201;-90
2023/09/08 13:13:10;;;;;;;1999.90;999.90;;;;;;;;;;5040463;28;20181;-92
2023/09/08 13:15:36;;;;;;;1999.90;999.90;;;;;;;;;;5041806;28;20737;-90
2023/09/08 13:18:02;;;;;;;1999.90;999.90;;;;;;;;;;5035524;28;20205;-90
2023/09/08 13:20:28;;;;;;;1999.90;999.90;;;;;;;;;;5019582;28;20202;-90
2023/09/08 13:22:54;;;;;;;1999.90;999.90;;;;;;;;;;5018757;28;20193;-91
2023/09/08 13:25:20;;;;;;;1999.90;999.90;;;;;;;;;;5018703;28;20730;-89
2023/09/08 13:27:50;;;;;;;1999.90;999.90;;;;;;;;;;5017254;28;20897;-93
2023/09/08 13:30:16;;;;;;;1999.90;999.90;;;;;;;;;;5018795;28;20173;-88
2023/09/08 13:32:42;;;;;;;1999.90;999.90;;;;;;;;;;5009032;28;20185;-91
2023/09/08 13:35:09;;;;;;;1999.90;999.90;;;;;;;;;;4997952;28;20185;-90
2023/09/08 13:37:35;;;;;;;1999.90;999.90;;;;;;;;;;4999365;28;20186;-92
2023/09/08 13:40:03;;;;;;;1999.90;999.90;;;;;;;;;;4997486;28;20212;-89
2023/09/08 13:42:29;;;;;;;1999.90;999.90;;;;;;;;;;5000238;28;20193;-91
2023/09/08 13:44:55;;;;;;;1999.90;999.90;;;;;;;;;;4997884;28;20181;-91
2023/09/08 13:47:21;;;;;;;1999.90;999.90;;;;;;;;;;5014789;28;20177;-92